Time;durP1;ratioP1;P1;durP2;ratioP2;P2;SDS_P1;SDS_P2;PMS_P1;PMS_P2;Temp;Humidity;BMP_temperature;BMP_pressure;BME280_temperature;BME280_humidity;BME280_pressure;Samples;Min_cycle;Max_cycle;Signal;HPM_P1;HPM_P2
2021/03/17 00:01:09;;;;;;;2.73;1.63;;;4.40;90.80;;;;;;6286429;28;20480;-60
2021/03/17 00:04:12;;;;;;;2.43;2.20;;;4.40;90.90;;;;;;6299499;28;20598;-60
2021/03/17 00:07:14;;;;;;;2.00;1.70;;;4.40;90.90;;;;;;6299458;28;20611;-60
2021/03/17 00:10:18;;;;;;;2.07;1.77;;;4.40;90.80;;;;;;6294275;28;20465;-60
2021/03/17 00:13:21;;;;;;;2.67;2.37;;;4.40;91.00;;;;;;6299154;28;20485;-58
2021/03/17 00:16:23;;;;;;;1.47;1.37;;;4.40;91.00;;;;;;6299055;28;20487;-59
2021/03/17 00:19:26;;;;;;;2.77;1.83;;;4.40;91.00;;;;;;6298831;28;20615;-58
2021/03/17 00:22:28;;;;;;;2.40;2.20;;;4.40;90.90;;;;;;6298906;28;20473;-58
2021/03/17 00:25:33;;;;;;;2.10;1.90;;;4.40;91.00;;;;;;6298898;28;20487;-59
2021/03/17 00:28:42;;;;;;;2.20;2.07;;;4.40;91.00;;;;;;6299253;28;20639;-58
2021/03/17 00:31:45;;;;;;;4.47;1.90;;;4.40;90.90;;;;;;6298947;28;20481;-59
2021/03/17 00:34:47;;;;;;;2.23;1.90;;;4.40;90.80;;;;;;6298680;28;20479;-58
2021/03/17 00:37:49;;;;;;;3.50;2.07;;;4.40;91.20;;;;;;6299011;28;20476;-59
2021/03/17 00:40:52;;;;;;;3.10;1.93;;;4.30;90.80;;;;;;6298576;28;20480;-60
2021/03/17 00:43:54;;;;;;;1.70;1.60;;;4.30;90.90;;;;;;6298655;28;20469;-59
2021/03/17 00:46:57;;;;;;;1.93;1.80;;;4.30;91.00;;;;;;6284526;28;20982;-59
2021/03/17 00:49:59;;;;;;;1.40;1.30;;;4.30;91.00;;;;;;6274516;28;20477;-59
2021/03/17 00:53:01;;;;;;;3.53;1.60;;;4.30;91.00;;;;;;6292641;28;20990;-59
2021/03/17 00:56:05;;;;;;;2.23;2.03;;;4.30;91.10;;;;;;6303213;28;20472;-58
2021/03/17 00:59:10;;;;;;;8.00;2.13;;;4.30;91.00;;;;;;6298617;28;20481;-59
2021/03/17 01:02:12;;;;;;;2.20;1.80;;;4.30;91.00;;;;;;6295932;28;20488;-58
2021/03/17 01:05:15;;;;;;;2.33;1.60;;;4.30;91.10;;;;;;6303185;28;20481;-58
2021/03/17 01:08:17;;;;;;;2.57;1.80;;;4.30;91.00;;;;;;6303442;28;20473;-59
2021/03/17 01:11:20;;;;;;;3.63;1.80;;;4.20;91.10;;;;;;6287525;28;20971;-59
2021/03/17 01:14:22;;;;;;;1.90;1.70;;;4.20;91.20;;;;;;6303201;28;20862;-58
2021/03/17 01:17:25;;;;;;;3.73;1.80;;;4.20;91.20;;;;;;6298132;28;20969;-60
2021/03/17 01:20:28;;;;;;;1.73;1.63;;;4.20;91.20;;;;;;6302848;28;20457;-59
2021/03/17 01:23:31;;;;;;;2.07;1.87;;;4.10;91.70;;;;;;6302425;28;20545;-59
2021/03/17 01:26:37;;;;;;;2.50;1.67;;;4.10;91.50;;;;;;6302568;28;20465;-59
2021/03/17 01:29:39;;;;;;;2.83;1.77;;;4.00;91.40;;;;;;6302664;28;20809;-58
2021/03/17 01:32:41;;;;;;;1.90;1.80;;;4.00;91.40;;;;;;6302543;28;20484;-59
2021/03/17 01:35:45;;;;;;;1.60;1.47;;;3.90;91.50;;;;;;6302155;28;21007;-60
2021/03/17 01:38:47;;;;;;;2.03;1.83;;;3.90;91.70;;;;;;6300245;28;20480;-60
2021/03/17 01:41:50;;;;;;;1.73;1.63;;;3.90;92.40;;;;;;6300606;28;20489;-59
2021/03/17 01:44:53;;;;;;;1.90;1.80;;;3.90;92.10;;;;;;6300366;28;20469;-60
2021/03/17 01:47:55;;;;;;;2.20;2.00;;;4.00;91.90;;;;;;6300186;28;20466;-59
2021/03/17 01:50:59;;;;;;;5.63;2.37;;;4.00;91.90;;;;;;6300176;28;20488;-59
2021/03/17 01:54:02;;;;;;;2.70;2.50;;;3.90;92.00;;;;;;6276596;28;20486;-60
2021/03/17 01:57:06;;;;;;;2.47;2.27;;;3.90;92.20;;;;;;6286560;28;20465;-60
2021/03/17 02:00:11;;;;;;;2.60;2.40;;;3.90;92.20;;;;;;6286347;28;20467;-58
2021/03/17 02:03:13;;;;;;;2.90;2.10;;;3.90;92.20;;;;;;6292268;28;20776;-58
2021/03/17 02:06:16;;;;;;;2.10;1.90;;;3.90;91.90;;;;;;6293295;28;20981;-58
2021/03/17 02:09:18;;;;;;;3.23;1.97;;;3.90;92.00;;;;;;6295790;28;20814;-59
2021/03/17 02:12:33;;;;;;;2.27;2.07;;;3.90;92.10;;;;;;6282190;28;20958;-59
2021/03/17 02:15:48;;;;;;;4.27;2.67;;;4.00;92.00;;;;;;6277895;28;20860;-59
2021/03/17 02:19:02;;;;;;;2.40;2.30;;;3.90;91.90;;;;;;6246424;28;20444;-59
2021/03/17 02:22:32;;;;;;;2.87;2.67;;;3.80;91.90;;;;;;6274495;28;20475;-60
2021/03/17 02:26:07;;;;;;;4.37;2.97;;;3.80;92.20;;;;;;6249226;28;20808;-59
2021/03/17 02:29:45;;;;;;;2.83;2.07;;;3.70;92.60;;;;;;6252151;28;20467;-59
2021/03/17 02:33:08;;;;;;;2.67;2.40;;;3.60;92.40;;;;;;6251652;28;20483;-59
2021/03/17 02:36:13;;;;;;;2.23;2.00;;;3.60;92.50;;;;;;6252000;28;20482;-60
2021/03/17 02:39:20;;;;;;;2.13;2.03;;;3.60;92.50;;;;;;6251580;28;20537;-63
2021/03/17 02:42:27;;;;;;;2.00;1.90;;;3.70;92.40;;;;;;6252133;28;20479;-59
2021/03/17 02:45:32;;;;;;;1.93;1.83;;;3.70;92.40;;;;;;6251720;28;20467;-59
2021/03/17 02:48:39;;;;;;;2.40;2.20;;;3.70;92.10;;;;;;6251564;28;20472;-59
2021/03/17 02:51:48;;;;;;;2.13;1.93;;;3.70;92.50;;;;;;6252091;28;20472;-59
2021/03/17 02:54:54;;;;;;;1.70;1.60;;;3.70;92.10;;;;;;6251358;28;20520;-60
2021/03/17 02:57:57;;;;;;;2.53;1.83;;;3.70;92.20;;;;;;6251557;28;20439;-59
2021/03/17 03:01:03;;;;;;;3.47;1.83;;;3.70;92.30;;;;;;6251441;28;20432;-59
2021/03/17 03:04:08;;;;;;;1.60;1.50;;;3.70;92.20;;;;;;6250891;28;20522;-59
2021/03/17 03:07:12;;;;;;;4.13;2.10;;;3.60;92.10;;;;;;6251444;28;20463;-59
2021/03/17 03:10:16;;;;;;;3.23;2.17;;;3.60;92.30;;;;;;6250866;28;21641;-59
2021/03/17 03:13:20;;;;;;;2.50;2.30;;;3.60;92.30;;;;;;6250802;28;20489;-60
2021/03/17 03:16:31;;;;;;;5.43;2.97;;;3.50;92.60;;;;;;6250058;28;20565;-59
2021/03/17 03:19:41;;;;;;;5.10;2.30;;;3.50;92.40;;;;;;6250609;28;20478;-60
2021/03/17 03:22:46;;;;;;;2.53;2.10;;;3.50;92.10;;;;;;6245940;28;20554;-59
2021/03/17 03:25:50;;;;;;;5.50;2.90;;;3.40;92.20;;;;;;6250965;28;20482;-59
2021/03/17 03:28:56;;;;;;;4.00;2.57;;;3.30;92.40;;;;;;6250828;28;20501;-59
2021/03/17 03:31:58;;;;;;;4.50;3.00;;;3.40;92.70;;;;;;6250287;28;20489;-60
2021/03/17 03:35:01;;;;;;;3.90;2.67;;;3.30;92.40;;;;;;6250187;28;20900;-59
2021/03/17 03:38:08;;;;;;;4.43;2.60;;;3.20;92.80;;;;;;6250800;28;20479;-60
2021/03/17 03:41:11;;;;;;;2.50;2.40;;;3.20;92.80;;;;;;6250144;28;20912;-59
2021/03/17 03:44:14;;;;;;;2.77;2.57;;;3.00;93.00;;;;;;6250385;28;20581;-60
2021/03/17 03:47:16;;;;;;;2.70;2.50;;;2.90;93.40;;;;;;6256201;28;20470;-59
2021/03/17 03:50:21;;;;;;;2.80;2.60;;;2.90;93.50;;;;;;6262954;28;20550;-60
2021/03/17 03:53:41;;;;;;;2.60;2.50;;;2.90;93.70;;;;;;6249908;28;20483;-59
2021/03/17 03:56:51;;;;;;;2.90;2.40;;;3.00;93.90;;;;;;6250183;28;20486;-60
2021/03/17 04:00:00;;;;;;;3.37;2.90;;;3.00;93.70;;;;;;6250030;28;20544;-60
2021/03/17 04:03:06;;;;;;;3.30;2.73;;;3.00;93.70;;;;;;6249778;28;20477;-60
2021/03/17 04:06:11;;;;;;;3.60;2.50;;;3.00;93.70;;;;;;6250062;28;20472;-60
2021/03/17 04:09:16;;;;;;;3.57;2.53;;;2.90;93.90;;;;;;6249478;28;20999;-59
2021/03/17 04:12:21;;;;;;;2.50;2.30;;;2.90;94.10;;;;;;6249948;28;20532;-60
2021/03/17 04:15:25;;;;;;;3.30;3.00;;;2.90;94.00;;;;;;6250169;28;20487;-60
2021/03/17 04:18:32;;;;;;;3.67;2.87;;;2.90;94.00;;;;;;6264997;28;20475;-59
2021/03/17 04:21:40;;;;;;;9.00;3.03;;;3.00;93.90;;;;;;6274284;28;20482;-59
2021/03/17 04:24:45;;;;;;;3.63;2.97;;;2.90;93.70;;;;;;6274125;28;20580;-59
2021/03/17 04:27:50;;;;;;;4.90;3.07;;;2.90;93.70;;;;;;6276108;28;20466;-59
2021/03/17 04:30:55;;;;;;;3.70;3.40;;;2.90;94.00;;;;;;6277678;28;20462;-59
2021/03/17 04:33:59;;;;;;;2.47;2.27;;;2.90;93.70;;;;;;6279103;28;20549;-60
2021/03/17 04:37:02;;;;;;;4.57;3.20;;;2.80;94.10;;;;;;6279552;28;20499;-60
2021/03/17 04:40:07;;;;;;;3.10;2.90;;;2.80;93.90;;;;;;6279060;28;20824;-60
2021/03/17 04:43:11;;;;;;;3.40;2.63;;;2.80;93.90;;;;;;6279179;28;20462;-59
2021/03/17 04:46:14;;;;;;;3.50;3.20;;;2.80;94.20;;;;;;6279175;28;20864;-59
2021/03/17 04:49:19;;;;;;;5.13;4.70;;;2.70;94.50;;;;;;6256635;28;20486;-59
2021/03/17 04:52:24;;;;;;;28.20;13.90;;;2.70;94.50;;;;;;6255030;28;20493;-60
2021/03/17 04:55:27;;;;;;;11.43;7.27;;;2.70;94.70;;;;;;6253846;28;20478;-60
2021/03/17 04:58:30;;;;;;;12.43;5.80;;;2.70;94.80;;;;;;6259221;28;20816;-59
2021/03/17 05:01:35;;;;;;;6.10;5.00;;;2.70;94.90;;;;;;6278854;28;20634;-59
2021/03/17 05:04:39;;;;;;;7.23;4.30;;;2.70;95.00;;;;;;6278891;28;20470;-59
2021/03/17 05:07:43;;;;;;;5.60;3.70;;;2.70;95.30;;;;;;6278514;28;20480;-59
2021/03/17 05:10:49;;;;;;;8.00;3.30;;;2.70;95.20;;;;;;6278818;28;20493;-59
2021/03/17 05:13:53;;;;;;;5.60;3.57;;;2.70;95.40;;;;;;6278734;28;20489;-59
2021/03/17 05:16:56;;;;;;;5.37;3.93;;;2.60;95.40;;;;;;6281118;28;20810;-59
2021/03/17 05:19:59;;;;;;;6.70;5.30;;;2.60;95.50;;;;;;6303113;28;20870;-60
2021/03/17 05:23:02;;;;;;;6.00;5.00;;;2.70;95.50;;;;;;6303101;28;20469;-59
2021/03/17 05:26:05;;;;;;;6.43;3.93;;;2.70;95.30;;;;;;6302990;28;20484;-60
2021/03/17 05:29:08;;;;;;;7.47;4.90;;;2.70;95.30;;;;;;6303455;28;20473;-60
2021/03/17 05:32:12;;;;;;;7.00;4.07;;;2.80;95.20;;;;;;6292912;28;20485;-60
2021/03/17 05:35:15;;;;;;;6.27;5.13;;;2.80;95.10;;;;;;6302593;28;20479;-60
2021/03/17 05:38:18;;;;;;;10.13;3.80;;;2.80;95.00;;;;;;6302645;28;20465;-59
2021/03/17 05:41:21;;;;;;;7.33;4.20;;;2.80;94.90;;;;;;6301757;28;20488;-60
2021/03/17 05:44:24;;;;;;;3.90;3.50;;;2.90;95.20;;;;;;6302667;28;20481;-60
2021/03/17 05:47:26;;;;;;;5.73;3.40;;;2.90;94.70;;;;;;6295279;28;20951;-60
2021/03/17 05:50:29;;;;;;;3.57;3.27;;;2.80;94.80;;;;;;6277781;28;20471;-61
2021/03/17 05:53:32;;;;;;;9.67;3.70;;;2.90;94.90;;;;;;6277807;28;20489;-60
2021/03/17 05:56:38;;;;;;;4.50;3.40;;;2.90;95.00;;;;;;6277543;28;20490;-60
2021/03/17 05:59:40;;;;;;;8.03;3.17;;;2.90;95.30;;;;;;6277565;28;20471;-60
2021/03/17 06:02:43;;;;;;;6.40;3.27;;;2.90;95.70;;;;;;6277190;28;20474;-60
2021/03/17 06:05:47;;;;;;;4.83;3.70;;;2.90;96.10;;;;;;6277322;28;20485;-59
2021/03/17 06:08:54;;;;;;;7.73;3.83;;;2.90;96.30;;;;;;6277228;28;20489;-60
2021/03/17 06:11:59;;;;;;;6.10;4.80;;;2.90;96.40;;;;;;6277217;28;20488;-60
2021/03/17 06:15:03;;;;;;;8.20;3.20;;;3.00;96.70;;;;;;6277615;28;20467;-59
2021/03/17 06:18:10;;;;;;;5.43;3.27;;;3.00;96.80;;;;;;6276981;28;20475;-59
2021/03/17 06:21:18;;;;;;;3.63;3.20;;;3.10;96.70;;;;;;6276879;28;20474;-59
2021/03/17 06:24:20;;;;;;;7.53;3.67;;;3.20;96.60;;;;;;6276439;28;20928;-59
2021/03/17 06:27:24;;;;;;;4.53;3.20;;;3.40;96.40;;;;;;6276788;28;20489;-59
2021/03/17 06:30:27;;;;;;;3.57;2.70;;;3.50;96.00;;;;;;6277277;28;20478;-59
2021/03/17 06:33:29;;;;;;;8.33;3.67;;;3.70;95.80;;;;;;6276381;28;20474;-59
2021/03/17 06:36:31;;;;;;;4.33;3.90;;;3.80;95.80;;;;;;6268002;28;20493;-59
2021/03/17 06:39:35;;;;;;;9.50;5.70;;;3.80;94.30;;;;;;6276433;28;20473;-60
2021/03/17 06:42:41;;;;;;;6.57;4.77;;;3.60;93.90;;;;;;6276610;28;20479;-60
2021/03/17 06:45:47;;;;;;;5.00;4.40;;;3.50;94.10;;;;;;6276151;28;20479;-60
2021/03/17 06:48:49;;;;;;;9.30;6.20;;;3.50;94.20;;;;;;6276132;28;20840;-60
2021/03/17 06:51:52;;;;;;;6.80;4.17;;;3.50;94.80;;;;;;6274791;28;20476;-60
2021/03/17 06:55:09;;;;;;;6.30;4.60;;;3.60;94.40;;;;;;6276358;28;20447;-60
2021/03/17 06:58:12;;;;;;;11.13;5.23;;;3.60;94.50;;;;;;6276259;28;20488;-60
2021/03/17 07:01:24;;;;;;;10.97;5.20;;;3.80;94.30;;;;;;6275949;28;20466;-59
2021/03/17 07:04:35;;;;;;;7.30;5.03;;;4.10;94.00;;;;;;6275868;28;20791;-59
2021/03/17 07:07:49;;;;;;;9.77;4.63;;;4.30;93.70;;;;;;6276196;28;20474;-59
2021/03/17 07:10:57;;;;;;;3.53;2.93;;;4.70;93.40;;;;;;6275621;28;20865;-60
2021/03/17 07:14:02;;;;;;;2.50;2.30;;;5.60;93.00;;;;;;6275580;28;20794;-60
2021/03/17 07:17:25;;;;;;;5.50;2.00;;;8.00;86.60;;;;;;6275481;28;20910;-60
2021/03/17 07:20:42;;;;;;;3.53;2.03;;;11.00;70.20;;;;;;6275467;28;20462;-60
2021/03/17 07:23:45;;;;;;;3.20;2.10;;;13.70;56.10;;;;;;6275477;28;20488;-60
2021/03/17 07:26:48;;;;;;;2.00;1.50;;;16.00;47.90;;;;;;6275441;28;20466;-60
2021/03/17 07:30:10;;;;;;;2.80;1.97;;;18.30;42.40;;;;;;6275336;28;20470;-60
2021/03/17 07:33:24;;;;;;;3.83;2.03;;;20.20;37.20;;;;;;6274959;28;20470;-60
2021/03/17 07:36:34;;;;;;;2.33;1.70;;;21.50;31.60;;;;;;6274687;28;20817;-60
2021/03/17 07:39:39;;;;;;;1.97;1.47;;;22.10;31.20;;;;;;6270389;28;20228;-59
2021/03/17 07:42:42;;;;;;;3.20;1.90;;;23.30;29.20;;;;;;6274971;28;20236;-60
2021/03/17 07:45:45;;;;;;;3.47;1.80;;;23.20;27.90;;;;;;6274915;28;20565;-60
2021/03/17 07:48:50;;;;;;;1.63;1.50;;;23.50;27.50;;;;;;6274881;28;20281;-60
2021/03/17 07:51:54;;;;;;;2.57;2.00;;;24.00;26.70;;;;;;6274144;28;20231;-59
2021/03/17 07:55:06;;;;;;;2.10;1.30;;;24.10;26.00;;;;;;6286643;28;20194;-60
2021/03/17 07:58:10;;;;;;;2.80;1.70;;;24.70;25.80;;;;;;6287947;28;20218;-60
2021/03/17 08:01:13;;;;;;;2.57;2.00;;;25.10;24.70;;;;;;6279778;28;20245;-59
2021/03/17 08:04:18;;;;;;;1.87;1.33;;;25.10;24.70;;;;;;6285229;28;20234;-60
2021/03/17 08:07:23;;;;;;;1.47;1.30;;;25.70;24.20;;;;;;6292786;28;20575;-60
2021/03/17 08:10:26;;;;;;;1.43;1.20;;;26.30;23.60;;;;;;6280598;28;20665;-60
2021/03/17 08:13:29;;;;;;;1.33;1.23;;;26.10;23.30;;;;;;6280415;28;20742;-61
2021/03/17 08:16:35;;;;;;;1.90;1.70;;;26.50;22.90;;;;;;6283637;28;20226;-60
2021/03/17 08:19:37;;;;;;;3.80;1.70;;;26.70;23.20;;;;;;6274390;28;20323;-61
2021/03/17 08:22:40;;;;;;;2.17;1.63;;;27.30;22.40;;;;;;6275418;28;20223;-61
2021/03/17 08:25:45;;;;;;;1.90;1.50;;;28.50;21.80;;;;;;6285269;28;20222;-60
2021/03/17 08:28:51;;;;;;;1.80;1.70;;;28.50;20.50;;;;;;6287164;28;20223;-60
2021/03/17 08:31:54;;;;;;;6.20;2.00;;;28.10;21.10;;;;;;6284667;28;20257;-60
2021/03/17 08:34:58;;;;;;;2.20;1.47;;;29.00;20.50;;;;;;6286388;28;20567;-60
2021/03/17 08:38:12;;;;;;;2.03;1.47;;;30.00;19.60;;;;;;6296492;28;20226;-61
2021/03/17 08:41:16;;;;;;;2.50;1.63;;;30.70;19.00;;;;;;6299079;28;20737;-60
2021/03/17 08:44:21;;;;;;;2.10;1.63;;;31.40;18.30;;;;;;6299158;28;20240;-60
2021/03/17 08:47:28;;;;;;;2.37;1.80;;;31.50;18.40;;;;;;6299536;28;20305;-60
2021/03/17 08:50:31;;;;;;;2.13;1.48;;;32.20;17.90;;;;;;6299012;28;20230;-61
2021/03/17 08:53:39;;;;;;;2.22;2.03;;;33.00;16.70;;;;;;6298786;28;20226;-61
2021/03/17 08:56:48;;;;;;;2.40;1.60;;;32.90;16.60;;;;;;6283610;28;20238;-61
2021/03/17 08:59:54;;;;;;;2.95;2.45;;;33.60;16.30;;;;;;6287779;28;20222;-61
2021/03/17 09:02:57;;;;;;;2.50;2.30;;;34.20;16.00;;;;;;6274480;28;20243;-60
2021/03/17 09:06:14;;;;;;;2.30;2.15;;;33.90;15.50;;;;;;6295313;28;20363;-60
2021/03/17 09:09:18;;;;;;;2.33;2.03;;;33.20;15.50;;;;;;6273434;28;20223;-60
2021/03/17 09:12:47;;;;;;;1.92;1.65;;;33.10;15.50;;;;;;6281678;28;20244;-60
2021/03/17 09:15:50;;;;;;;2.00;1.80;;;33.40;15.40;;;;;;6286174;28;20680;-60
2021/03/17 09:19:04;;;;;;;2.28;1.85;;;34.00;15.30;;;;;;6278134;28;20942;-60
2021/03/17 09:22:31;;;;;;;2.42;2.03;;;33.10;15.30;;;;;;6278152;28;20239;-61
2021/03/17 09:25:37;;;;;;;1.75;1.60;;;34.20;15.00;;;;;;6302830;28;20234;-60
2021/03/17 09:28:39;;;;;;;1.90;1.70;;;34.60;14.90;;;;;;6300603;28;20226;-61
2021/03/17 09:31:41;;;;;;;2.63;1.98;;;36.00;14.40;;;;;;6277917;28;20257;-61
2021/03/17 09:34:45;;;;;;;1.65;1.55;;;37.10;14.00;;;;;;6277891;28;20227;-61
2021/03/17 09:37:47;;;;;;;1.52;1.42;;;37.60;13.70;;;;;;6277973;28;20247;-61
2021/03/17 09:40:54;;;;;;;1.75;1.60;;;38.60;13.10;;;;;;6287640;28;20237;-61
2021/03/17 09:43:58;;;;;;;1.90;1.48;;;39.40;12.70;;;;;;6302611;28;20260;-61
2021/03/17 09:47:00;;;;;;;1.80;1.60;;;39.30;12.40;;;;;;6292346;28;20238;-62
2021/03/17 09:50:13;;;;;;;1.73;1.30;;;38.60;12.50;;;;;;6302290;28;20239;-61
2021/03/17 09:53:16;;;;;;;2.65;1.60;;;34.50;13.40;;;;;;6302463;28;20245;-61
2021/03/17 09:56:33;;;;;;;1.50;1.40;;;32.60;14.80;;;;;;6302314;28;20368;-61
2021/03/17 09:59:38;;;;;;;2.90;2.05;;;33.80;14.30;;;;;;6302201;28;20695;-62
2021/03/17 10:02:46;;;;;;;3.65;1.45;;;33.20;14.50;;;;;;6301331;28;20580;-61
2021/03/17 10:05:56;;;;;;;2.25;1.48;;;35.10;14.00;;;;;;6301829;28;20238;-61
2021/03/17 10:08:59;;;;;;;2.72;1.50;;;35.70;13.50;;;;;;6301716;28;20241;-61
2021/03/17 10:12:03;;;;;;;1.65;1.55;;;37.00;13.00;;;;;;6301534;28;20226;-61
2021/03/17 10:15:09;;;;;;;1.92;1.27;;;36.60;12.60;;;;;;6300676;28;20222;-62
2021/03/17 10:18:15;;;;;;;1.80;1.70;;;37.50;12.70;;;;;;6301476;28;20230;-61
2021/03/17 10:21:26;;;;;;;1.80;1.70;;;38.60;12.10;;;;;;6301249;28;20249;-62
2021/03/17 10:24:42;;;;;;;1.50;1.40;;;36.80;12.20;;;;;;6301008;28;20691;-62
2021/03/17 10:27:46;;;;;;;1.70;1.50;;;33.80;13.20;;;;;;6301035;28;20695;-61
2021/03/17 10:30:49;;;;;;;2.40;1.63;;;31.60;14.50;;;;;;6301011;28;20249;-61
2021/03/17 10:33:53;;;;;;;2.33;1.83;;;28.80;15.80;;;;;;6301066;28;20218;-60
2021/03/17 10:36:57;;;;;;;1.80;1.70;;;28.90;16.20;;;;;;6301334;28;20272;-61
2021/03/17 10:40:08;;;;;;;1.60;1.50;;;31.10;15.40;;;;;;6301187;28;20203;-62
2021/03/17 10:43:11;;;;;;;1.77;1.20;;;32.20;14.30;;;;;;6301029;28;20218;-64
2021/03/17 10:46:13;;;;;;;1.83;1.47;;;29.40;15.70;;;;;;6300392;28;20321;-64
2021/03/17 10:49:16;;;;;;;3.00;1.67;;;26.30;17.20;;;;;;6296114;28;20222;-61
2021/03/17 10:52:19;;;;;;;3.40;1.60;;;23.80;18.90;;;;;;6300534;28;20261;-63
2021/03/17 10:55:24;;;;;;;1.77;1.67;;;21.30;21.50;;;;;;6300628;28;20241;-61
2021/03/17 10:58:28;;;;;;;2.90;1.70;;;19.20;24.20;;;;;;6300380;28;20688;-61
2021/03/17 11:01:31;;;;;;;2.60;1.47;;;17.70;26.40;;;;;;6300202;28;20231;-62
2021/03/17 11:04:34;;;;;;;1.97;1.30;;;16.30;27.40;;;;;;6300336;28;20478;-60
2021/03/17 11:07:58;;;;;;;1.60;1.23;;;15.10;30.10;;;;;;6300446;28;20469;-63
2021/03/17 11:11:05;;;;;;;1.40;1.30;;;14.40;30.90;;;;;;6300044;28;20541;-61
2021/03/17 11:14:09;;;;;;;1.50;1.40;;;17.40;30.00;;;;;;6296887;28;20458;-63
2021/03/17 11:17:12;;;;;;;2.13;1.43;;;19.60;27.30;;;;;;6275214;28;20474;-63
2021/03/17 11:20:15;;;;;;;1.87;1.60;;;19.10;26.30;;;;;;6275164;28;20480;-62
2021/03/17 11:23:20;;;;;;;1.30;1.20;;;18.40;27.00;;;;;;6275024;28;20975;-61
2021/03/17 11:26:29;;;;;;;1.40;1.30;;;20.90;26.00;;;;;;6275313;28;20228;-63
2021/03/17 11:29:31;;;;;;;1.50;1.40;;;25.50;22.60;;;;;;6275237;28;20309;-61
2021/03/17 11:32:34;;;;;;;1.57;1.23;;;28.90;19.70;;;;;;6274805;28;20314;-62
2021/03/17 11:35:38;;;;;;;3.30;1.77;;;31.40;17.30;;;;;;6274735;28;20535;-63
2021/03/17 11:38:44;;;;;;;1.43;1.33;;;33.00;15.60;;;;;;6274079;28;20223;-63
2021/03/17 11:41:49;;;;;;;1.50;1.30;;;31.80;15.60;;;;;;6274497;28;20246;-60
2021/03/17 11:44:51;;;;;;;3.10;1.70;;;29.20;16.90;;;;;;6274639;28;20226;-61
2021/03/17 11:47:54;;;;;;;1.77;1.67;;;26.80;17.60;;;;;;6274493;28;20226;-62
2021/03/17 11:50:59;;;;;;;2.80;1.43;;;24.10;19.30;;;;;;6274414;28;20321;-63
2021/03/17 11:54:02;;;;;;;2.80;1.50;;;23.10;20.20;;;;;;6274112;28;20231;-62
2021/03/17 11:57:05;;;;;;;5.23;1.40;;;21.60;21.10;;;;;;6264579;28;20282;-63
2021/03/17 12:00:09;;;;;;;2.30;1.20;;;20.50;22.50;;;;;;6274282;28;20242;-59
2021/03/17 12:03:11;;;;;;;1.33;1.23;;;20.60;22.50;;;;;;6276555;28;20230;-63
2021/03/17 12:06:14;;;;;;;3.27;1.40;;;20.10;22.60;;;;;;6274160;28;20703;-62
2021/03/17 12:09:17;;;;;;;1.70;1.53;;;18.60;23.50;;;;;;6274036;28;20313;-60
2021/03/17 12:12:20;;;;;;;3.10;1.40;;;17.30;23.90;;;;;;6274011;28;20577;-60
2021/03/17 12:15:24;;;;;;;1.30;1.20;;;16.40;25.00;;;;;;6286985;28;20487;-62
2021/03/17 12:18:27;;;;;;;1.20;1.10;;;16.60;26.10;;;;;;6298701;28;20470;-60
2021/03/17 12:21:29;;;;;;;1.20;1.20;;;16.80;25.20;;;;;;6298839;28;20473;-60
2021/03/17 12:24:33;;;;;;;2.93;1.30;;;16.40;25.30;;;;;;6298799;28;20485;-62
2021/03/17 12:27:36;;;;;;;2.20;1.33;;;16.00;25.60;;;;;;6299096;28;20536;-60
2021/03/17 12:30:38;;;;;;;2.13;1.90;;;15.50;26.20;;;;;;6298541;28;20523;-60
2021/03/17 12:33:41;;;;;;;1.23;1.17;;;15.50;26.80;;;;;;6298762;28;20477;-62
2021/03/17 12:36:43;;;;;;;1.60;1.20;;;15.80;26.20;;;;;;6298812;28;20470;-61
2021/03/17 12:39:47;;;;;;;2.33;1.60;;;15.50;26.70;;;;;;6298504;28;20469;-60
2021/03/17 12:42:50;;;;;;;1.30;1.20;;;15.20;27.30;;;;;;6298444;28;20869;-61
2021/03/17 12:45:53;;;;;;;3.17;1.80;;;14.70;26.20;;;;;;6298562;28;20605;-62
2021/03/17 12:48:55;;;;;;;2.80;1.53;;;14.20;26.50;;;;;;6300052;28;20453;-60
2021/03/17 12:52:00;;;;;;;4.73;1.47;;;13.70;28.40;;;;;;6294231;28;20462;-60
2021/03/17 12:55:07;;;;;;;1.43;1.00;;;13.40;29.60;;;;;;6289327;28;20477;-60
2021/03/17 12:58:09;;;;;;;1.30;1.20;;;14.30;29.20;;;;;;6281393;28;20469;-64
2021/03/17 13:01:11;;;;;;;1.10;1.00;;;16.00;26.20;;;;;;6278380;28;20511;-62
2021/03/17 13:04:14;;;;;;;1.73;1.63;;;15.60;25.50;;;;;;6291256;28;20870;-62
2021/03/17 13:07:17;;;;;;;1.50;1.40;;;14.80;26.40;;;;;;6299743;28;20491;-62
2021/03/17 13:10:23;;;;;;;2.03;1.30;;;14.70;26.80;;;;;;6300052;28;20473;-61
2021/03/17 13:13:25;;;;;;;1.27;1.17;;;14.50;26.00;;;;;;6299890;28;20473;-62
2021/03/17 13:16:27;;;;;;;1.20;0.90;;;16.20;25.60;;;;;;6277342;28;20466;-63
2021/03/17 13:19:30;;;;;;;1.33;1.20;;;19.30;23.10;;;;;;6275007;28;20466;-63
2021/03/17 13:22:32;;;;;;;1.23;1.10;;;18.70;21.90;;;;;;6277878;28;20488;-61
2021/03/17 13:25:39;;;;;;;1.73;1.40;;;17.40;22.90;;;;;;6277749;28;20818;-62
2021/03/17 13:28:42;;;;;;;1.40;1.20;;;16.20;24.30;;;;;;6278036;28;20481;-62
2021/03/17 13:31:44;;;;;;;1.93;1.43;;;16.00;25.20;;;;;;6277441;28;20990;-61
2021/03/17 13:34:46;;;;;;;2.93;1.60;;;16.50;24.90;;;;;;6277676;28;20504;-62
2021/03/17 13:37:48;;;;;;;4.30;2.50;;;16.30;25.10;;;;;;6277591;28;20476;-61
2021/03/17 13:40:53;;;;;;;3.43;1.47;;;15.50;25.50;;;;;;6277536;28;20556;-61
2021/03/17 13:43:56;;;;;;;4.20;1.90;;;14.50;26.30;;;;;;6277545;28;20553;-61
2021/03/17 13:46:58;;;;;;;2.03;1.37;;;13.80;27.80;;;;;;6277318;28;20488;-61
2021/03/17 13:50:01;;;;;;;2.57;1.73;;;13.20;28.50;;;;;;6277257;28;20480;-62
2021/03/17 13:53:03;;;;;;;1.30;1.20;;;12.80;29.00;;;;;;6277316;28;20470;-61
2021/03/17 13:56:07;;;;;;;1.10;1.00;;;12.70;29.90;;;;;;6277025;28;20481;-61
2021/03/17 13:59:09;;;;;;;0.90;0.90;;;12.50;29.80;;;;;;6276955;28;20481;-61
2021/03/17 14:02:12;;;;;;;1.40;1.10;;;12.50;29.10;;;;;;6276801;28;20484;-61
2021/03/17 14:05:16;;;;;;;1.47;1.10;;;12.60;29.50;;;;;;6290527;28;20674;-61
2021/03/17 14:08:18;;;;;;;2.63;1.60;;;12.70;29.00;;;;;;6301516;28;20469;-62
2021/03/17 14:11:21;;;;;;;1.23;1.13;;;12.70;28.90;;;;;;6300600;28;20465;-62
2021/03/17 14:14:24;;;;;;;1.70;1.30;;;12.70;29.50;;;;;;6301219;28;20466;-61
2021/03/17 14:17:26;;;;;;;1.73;1.30;;;12.80;29.70;;;;;;6301536;28;20469;-63
2021/03/17 14:20:30;;;;;;;1.60;1.50;;;13.10;29.90;;;;;;6301490;28;20526;-63
2021/03/17 14:23:33;;;;;;;2.90;1.50;;;13.00;29.80;;;;;;6301041;28;20566;-62
2021/03/17 14:26:37;;;;;;;1.73;1.63;;;12.60;29.90;;;;;;6301412;28;20481;-63
2021/03/17 14:29:40;;;;;;;1.20;1.10;;;12.30;30.70;;;;;;6301409;28;20473;-63
2021/03/17 14:32:42;;;;;;;3.27;1.57;;;12.00;31.20;;;;;;6300926;28;20954;-62
2021/03/17 14:35:50;;;;;;;1.20;1.10;;;11.80;31.40;;;;;;6301205;28;20474;-61
2021/03/17 14:38:53;;;;;;;1.40;1.30;;;11.50;31.30;;;;;;6301002;28;20469;-63
2021/03/17 14:41:58;;;;;;;1.00;1.00;;;11.10;31.20;;;;;;6301061;28;20481;-62
2021/03/17 14:45:14;;;;;;;1.30;1.00;;;11.00;31.60;;;;;;6300764;28;20990;-60
2021/03/17 14:48:16;;;;;;;1.27;1.17;;;10.90;31.70;;;;;;6300788;28;20815;-62
2021/03/17 14:51:19;;;;;;;1.23;1.13;;;10.80;31.60;;;;;;6300505;28;20473;-65
2021/03/17 14:54:21;;;;;;;1.33;1.23;;;10.70;31.90;;;;;;6300553;28;20473;-64
2021/03/17 14:57:24;;;;;;;0.80;0.80;;;10.50;31.00;;;;;;6300304;28;20465;-64
2021/03/17 15:00:26;;;;;;;1.50;1.27;;;10.30;31.60;;;;;;6300133;28;20473;-64
2021/03/17 15:03:29;;;;;;;1.20;1.10;;;10.30;32.00;;;;;;6300352;28;20478;-65
2021/03/17 15:06:31;;;;;;;1.23;1.00;;;10.30;31.60;;;;;;6300649;28;20469;-64
2021/03/17 15:09:33;;;;;;;3.83;1.30;;;10.20;32.10;;;;;;6291103;28;20473;-64
2021/03/17 15:12:36;;;;;;;1.80;1.27;;;10.20;32.50;;;;;;6298822;28;20578;-64
2021/03/17 15:15:39;;;;;;;1.50;1.40;;;10.20;32.80;;;;;;6284272;28;20474;-64
2021/03/17 15:18:41;;;;;;;1.50;1.30;;;10.20;33.70;;;;;;6274950;28;20485;-64
2021/03/17 15:21:43;;;;;;;2.13;1.60;;;10.40;33.50;;;;;;6275048;28;20478;-64
2021/03/17 15:24:46;;;;;;;1.30;1.20;;;10.50;33.70;;;;;;6274793;28;20494;-64
2021/03/17 15:27:49;;;;;;;2.10;1.60;;;10.70;33.00;;;;;;6275109;28;20967;-65
2021/03/17 15:30:51;;;;;;;1.40;1.20;;;10.70;33.10;;;;;;6275565;28;20474;-63
2021/03/17 15:33:54;;;;;;;1.53;1.40;;;10.80;32.80;;;;;;6275275;28;20466;-61
2021/03/17 15:36:56;;;;;;;2.00;1.50;;;10.90;33.10;;;;;;6274752;28;20500;-62
2021/03/17 15:40:01;;;;;;;1.73;1.60;;;11.00;32.40;;;;;;6275457;28;20447;-61
2021/03/17 15:43:05;;;;;;;1.50;1.40;;;10.90;32.00;;;;;;6275123;28;20480;-62
2021/03/17 15:46:07;;;;;;;3.93;1.10;;;11.00;31.90;;;;;;6274689;28;20557;-63
2021/03/17 15:49:10;;;;;;;1.50;1.40;;;11.00;31.90;;;;;;6274870;28;20465;-62
2021/03/17 15:52:12;;;;;;;1.73;1.53;;;11.00;31.20;;;;;;6275007;28;20455;-62
2021/03/17 15:55:15;;;;;;;2.10;1.23;;;10.90;31.10;;;;;;6274175;28;20599;-64
2021/03/17 15:58:18;;;;;;;2.30;1.60;;;10.90;31.60;;;;;;6274130;28;20548;-64
2021/03/17 16:01:23;;;;;;;1.60;1.27;;;10.80;31.30;;;;;;6274554;28;20462;-63
2021/03/17 16:04:25;;;;;;;1.50;1.40;;;10.60;31.60;;;;;;6289642;28;20465;-63
2021/03/17 16:07:29;;;;;;;2.60;1.50;;;10.60;31.80;;;;;;6299134;28;20954;-64